Time;durP1;ratioP1;P1;durP2;ratioP2;P2;SDS_P1;SDS_P2;PMS_P1;PMS_P2;Temp;Humidity;BMP_temperature;BMP_pressure;BME280_temperature;BME280_humidity;BME280_pressure;Samples;Min_cycle;Max_cycle;Signal;HPM_P1;HPM_P2
2023/03/07 00:01:37;;;;;;;16.58;8.52;;;1.70;99.90;;;0.81;100.00;96086.50;4988283;28;20050;-41
2023/03/07 00:04:02;;;;;;;12.70;7.97;;;1.70;99.90;;;0.83;100.00;96089.91;4984845;28;20026;-42
2023/03/07 00:06:28;;;;;;;14.10;8.10;;;1.70;99.90;;;0.82;100.00;96088.19;4978805;28;20030;-41
2023/03/07 00:08:58;;;;;;;16.08;8.18;;;1.60;99.90;;;0.82;100.00;96085.59;4978061;28;20065;-42
2023/03/07 00:11:24;;;;;;;15.77;7.75;;;1.70;99.90;;;0.81;100.00;96093.41;4996757;28;20517;-41
2023/03/07 00:13:50;;;;;;;16.75;8.43;;;1.70;99.90;;;0.83;100.00;96089.06;4982821;28;20582;-41
2023/03/07 00:16:19;;;;;;;16.73;8.88;;;1.70;99.90;;;0.86;100.00;96095.06;4980790;28;20033;-41
2023/03/07 00:18:45;;;;;;;18.95;8.65;;;1.70;99.90;;;0.91;100.00;96094.94;4987092;28;20030;-42
2023/03/07 00:21:15;;;;;;;13.00;7.82;;;1.80;99.90;;;0.97;100.00;96083.59;4979004;28;20541;-42
2023/03/07 00:23:42;;;;;;;15.52;7.95;;;1.80;99.90;;;1.00;100.00;96092.16;4978671;28;20034;-42
2023/03/07 00:26:20;;;;;;;15.50;8.68;;;1.90;99.90;;;0.99;100.00;96081.81;4981837;28;20513;-43
2023/03/07 00:28:48;;;;;;;13.77;7.72;;;1.90;99.90;;;1.09;100.00;96085.94;4978244;28;20037;-42
2023/03/07 00:31:15;;;;;;;13.50;8.07;;;1.90;99.90;;;1.12;100.00;96081.53;4979070;28;20247;-42
2023/03/07 00:33:41;;;;;;;15.15;8.38;;;2.00;99.90;;;1.14;100.00;96074.56;4986939;28;20080;-41
2023/03/07 00:36:11;;;;;;;12.80;7.50;;;2.00;99.90;;;1.18;100.00;96071.91;4987056;28;20036;-41
2023/03/07 00:38:37;;;;;;;14.32;7.70;;;2.00;99.90;;;1.22;100.00;96076.13;4989144;28;20091;-42
2023/03/07 00:41:13;;;;;;;15.15;8.55;;;2.10;99.90;;;1.24;100.00;96069.16;4991246;28;20049;-43
2023/03/07 00:43:39;;;;;;;14.68;7.93;;;2.10;99.90;;;1.26;100.00;96077.81;4988784;28;20488;-42
2023/03/07 00:46:05;;;;;;;14.05;7.38;;;2.10;99.90;;;1.27;100.00;96064.75;4988687;28;20596;-43
2023/03/07 00:48:37;;;;;;;14.82;8.38;;;2.20;99.90;;;1.29;100.00;96054.34;4988447;28;20291;-41
2023/03/07 00:51:07;;;;;;;15.10;8.53;;;2.20;99.90;;;1.31;100.00;96043.03;4989418;28;20217;-42
2023/03/07 00:53:33;;;;;;;14.15;7.60;;;2.20;99.90;;;1.37;100.00;96047.25;4988983;28;20030;-42
2023/03/07 00:56:22;;;;;;;24.90;8.75;;;2.20;99.90;;;1.38;100.00;96045.50;4988339;28;20536;-42
2023/03/07 00:58:49;;;;;;;17.25;8.65;;;2.30;99.90;;;1.38;100.00;96042.91;4988213;28;20064;-42
2023/03/07 01:01:21;;;;;;;16.92;7.78;;;2.30;99.90;;;1.39;100.00;96042.03;4980291;28;20033;-42
2023/03/07 01:03:48;;;;;;;15.85;8.45;;;2.30;99.90;;;1.42;100.00;96040.22;4980198;28;20037;-41
2023/03/07 01:06:16;;;;;;;13.93;7.70;;;2.30;99.90;;;1.45;100.00;96034.06;4980233;28;20470;-41
2023/03/07 01:08:43;;;;;;;13.18;7.88;;;2.30;99.90;;;1.44;100.00;96034.97;4983336;28;20041;-41
2023/03/07 01:11:10;;;;;;;11.82;7.18;;;2.30;99.90;;;1.49;100.00;96038.31;4977239;28;20034;-41
2023/03/07 01:13:36;;;;;;;13.82;7.60;;;2.40;99.90;;;1.48;100.00;96031.41;4980678;28;20558;-42
2023/03/07 01:16:07;;;;;;;12.00;7.22;;;2.40;99.90;;;1.47;100.00;96034.88;4974477;28;20036;-42
2023/03/07 01:18:33;;;;;;;12.70;7.35;;;2.30;99.90;;;1.48;100.00;96031.41;4980935;28;20034;-41
2023/03/07 01:20:59;;;;;;;16.63;7.97;;;2.40;99.90;;;1.48;100.00;96037.47;4979473;28;20278;-43
2023/03/07 01:23:24;;;;;;;14.85;7.75;;;2.30;99.90;;;1.48;100.00;96034.00;4982586;28;20061;-42
2023/03/07 01:25:50;;;;;;;12.80;7.25;;;2.40;99.90;;;1.45;100.00;96039.28;4980533;28;20053;-43
2023/03/07 01:28:16;;;;;;;14.52;7.38;;;2.40;99.90;;;1.45;100.00;96036.66;4977434;28;20037;-44
2023/03/07 01:30:42;;;;;;;12.05;7.38;;;2.30;99.90;;;1.44;100.00;96032.38;4979032;28;20483;-43
2023/03/07 01:33:08;;;;;;;12.23;7.35;;;2.30;99.90;;;1.24;100.00;96004.22;4991105;28;20081;-42
2023/03/07 01:35:38;;;;;;;12.57;7.18;;;2.30;99.90;;;1.37;100.00;96026.47;5013580;22;20560;-40
2023/03/07 01:38:05;;;;;;;13.50;7.38;;;2.30;99.90;;;1.40;100.00;96033.31;4987183;28;20277;-40
2023/03/07 01:40:31;;;;;;;12.80;7.13;;;2.30;99.90;;;1.39;100.00;96029.88;4990061;28;20040;-40
2023/03/07 01:43:32;;;;;;;17.35;7.90;;;2.30;99.90;;;1.39;100.00;96018.63;4985265;28;20271;-40
2023/03/07 01:46:16;;;;;;;13.48;7.30;;;2.30;99.90;;;1.40;100.00;96020.31;4977607;28;20030;-40
2023/03/07 01:48:50;;;;;;;12.15;6.57;;;2.30;99.90;;;1.34;100.00;96006.59;4999207;28;20037;-40
2023/03/07 01:51:18;;;;;;;13.80;7.43;;;2.20;99.90;;;1.39;100.00;96021.25;4992258;28;20044;-40
2023/03/07 01:53:44;;;;;;;12.55;7.35;;;2.30;99.90;;;1.38;100.00;96014.31;4992120;28;20034;-40
2023/03/07 01:56:10;;;;;;;14.88;7.47;;;2.30;99.90;;;1.33;100.00;96004.06;4989171;28;20057;-40
2023/03/07 01:58:38;;;;;;;13.82;7.00;;;2.20;99.90;;;1.37;100.00;96005.69;4990480;28;20430;-40
2023/03/07 02:01:11;;;;;;;11.98;7.57;;;2.30;99.90;;;1.37;100.00;96005.69;4991201;28;20104;-40
2023/03/07 02:03:46;;;;;;;14.57;7.78;;;2.30;99.90;;;1.38;100.00;96020.34;4988414;28;20121;-40
2023/03/07 02:06:13;;;;;;;10.98;6.35;;;2.30;99.90;;;1.31;100.00;96008.41;4992120;28;20084;-39
2023/03/07 02:08:41;;;;;;;13.15;7.15;;;2.20;99.90;;;1.32;100.00;96003.19;4993380;28;20478;-40
2023/03/07 02:11:07;;;;;;;12.70;7.65;;;2.20;99.90;;;1.33;100.00;96014.44;4991404;28;20034;-40
2023/03/07 02:13:34;;;;;;;13.30;7.47;;;2.20;99.90;;;1.30;100.00;96002.38;4994680;28;20048;-41
2023/03/07 02:16:02;;;;;;;12.00;6.88;;;2.20;99.90;;;1.29;100.00;96005.00;4991093;28;20446;-40
2023/03/07 02:18:31;;;;;;;11.55;7.32;;;2.20;99.90;;;1.28;100.00;95996.34;4992748;28;20405;-40
2023/03/07 02:21:29;;;;;;;12.68;6.90;;;2.20;99.90;;;1.28;100.00;95998.94;4987713;28;20034;-40
2023/03/07 02:24:43;;;;;;;13.27;7.22;;;2.20;99.90;;;1.31;100.00;95995.41;5003740;28;20076;-40
2023/03/07 02:27:09;;;;;;;14.68;7.90;;;2.20;99.90;;;1.34;100.00;95996.19;4989732;28;20674;-43
2023/03/07 02:29:35;;;;;;;11.60;6.60;;;2.20;99.90;;;1.36;100.00;96000.53;4990417;28;20285;-41
2023/03/07 02:32:01;;;;;;;13.18;7.65;;;2.30;99.90;;;1.37;100.00;95991.84;4988804;28;20034;-40
2023/03/07 02:34:29;;;;;;;13.45;7.32;;;2.30;99.90;;;1.40;100.00;95987.44;4991848;28;20036;-40
2023/03/07 02:37:06;;;;;;;12.55;7.03;;;2.30;99.90;;;1.41;100.00;95985.69;4990279;28;20045;-40
2023/03/07 02:39:33;;;;;;;13.70;7.43;;;2.30;99.90;;;1.41;100.00;95977.88;4990615;28;20049;-40
2023/03/07 02:42:06;;;;;;;13.93;7.30;;;2.30;99.90;;;1.46;100.00;95978.63;4981513;28;20176;-40
2023/03/07 02:44:32;;;;;;;12.55;6.95;;;2.30;99.90;;;1.47;100.00;95967.34;4983290;28;20022;-41
2023/03/07 02:46:58;;;;;;;13.23;7.10;;;2.40;99.90;;;1.50;100.00;95972.47;4985495;28;20036;-41
2023/03/07 02:49:23;;;;;;;12.30;7.60;;;2.30;99.90;;;1.49;100.00;95970.75;4989810;28;20525;-41
2023/03/07 02:51:49;;;;;;;11.88;7.35;;;2.30;99.90;;;1.50;99.88;95972.47;4985797;28;20108;-41
2023/03/07 02:54:15;;;;;;;11.50;7.00;;;2.40;99.90;;;1.46;100.00;95957.84;4989692;28;20038;-40
2023/03/07 02:56:41;;;;;;;14.32;7.95;;;2.40;99.90;;;1.29;99.18;95940.94;4992577;28;20038;-41
2023/03/07 02:59:06;;;;;;;10.85;6.82;;;2.30;99.90;;;1.47;99.36;95964.75;4989548;28;20579;-40
2023/03/07 03:01:32;;;;;;;15.63;7.32;;;2.30;99.90;;;1.45;99.80;95958.72;4987623;28;20275;-40
2023/03/07 03:03:58;;;;;;;13.93;7.90;;;2.30;99.90;;;1.41;100.00;95955.34;4980294;28;20037;-40
2023/03/07 03:06:23;;;;;;;12.32;6.95;;;2.30;99.90;;;1.42;100.00;95945.81;4979826;28;20490;-40
2023/03/07 03:08:49;;;;;;;13.57;7.75;;;2.30;99.90;;;1.37;100.00;95964.13;4991109;28;20026;-40
2023/03/07 03:11:15;;;;;;;15.55;8.13;;;2.30;99.90;;;1.34;100.00;95952.03;4991231;28;20421;-40
2023/03/07 03:13:40;;;;;;;10.80;6.40;;;2.20;99.90;;;1.33;100.00;95960.75;4987850;28;20245;-40
2023/03/07 03:16:06;;;;;;;14.77;8.00;;;2.20;99.90;;;1.30;100.00;95959.97;4978947;28;20397;-40
2023/03/07 03:18:32;;;;;;;12.63;7.30;;;2.20;99.90;;;1.32;100.00;95947.78;4979467;28;20377;-40
2023/03/07 03:20:58;;;;;;;13.10;7.18;;;2.20;99.90;;;1.35;100.00;95958.13;4980980;28;20643;-40
2023/03/07 03:23:27;;;;;;;12.52;7.13;;;2.20;99.90;;;1.38;100.00;95958.03;4990112;28;20056;-40
2023/03/07 03:25:58;;;;;;;13.00;6.88;;;2.30;99.90;;;1.43;100.00;95950.97;4978111;28;20030;-40
2023/03/07 03:28:24;;;;;;;13.73;7.97;;;2.30;99.90;;;1.49;100.00;95950.84;4984353;28;20026;-41
2023/03/07 03:31:03;;;;;;;17.67;8.25;;;2.40;99.90;;;1.51;100.00;95946.47;4977439;28;20615;-40
2023/03/07 03:33:29;;;;;;;15.50;8.20;;;2.40;99.90;;;1.55;100.00;95949.84;4985330;28;20044;-40
2023/03/07 03:36:03;;;;;;;11.98;7.50;;;2.40;99.90;;;1.47;100.00;95929.25;4977193;28;20034;-40
2023/03/07 03:38:29;;;;;;;13.25;6.75;;;2.50;99.90;;;1.59;100.00;95948.84;4982732;28;20062;-40
2023/03/07 03:40:55;;;;;;;12.98;7.50;;;2.50;99.90;;;1.61;100.00;95944.47;4974808;28;20124;-40
2023/03/07 03:43:21;;;;;;;11.77;7.13;;;2.50;99.90;;;1.69;100.00;95949.50;4987625;28;20026;-40
2023/03/07 03:45:54;;;;;;;13.93;7.78;;;2.50;99.90;;;1.69;100.00;95946.91;4972105;28;20658;-41
2023/03/07 03:48:20;;;;;;;14.88;7.65;;;2.60;99.90;;;1.70;99.68;95946.84;4985302;28;20038;-40
2023/03/07 03:50:46;;;;;;;14.25;7.90;;;2.60;99.90;;;1.73;99.50;95947.69;4983705;28;20354;-41
2023/03/07 03:53:12;;;;;;;15.02;8.32;;;2.60;99.90;;;1.74;99.90;95936.38;4977879;28;20038;-40
2023/03/07 03:55:37;;;;;;;16.08;8.30;;;2.60;99.90;;;1.77;99.37;95933.69;4973833;28;20394;-40
2023/03/07 03:58:03;;;;;;;14.60;7.88;;;2.60;99.90;;;1.67;99.40;95923.53;4973187;28;20072;-40
2023/03/07 04:00:29;;;;;;;17.77;8.05;;;2.60;99.90;;;1.69;100.00;95936.50;4975268;28;21387;-41
2023/03/07 04:02:55;;;;;;;17.40;8.60;;;2.60;99.90;;;1.63;99.37;95928.84;4980277;28;20453;-40
2023/03/07 04:05:21;;;;;;;13.55;8.43;;;2.50;99.90;;;1.57;100.00;95929.00;4989316;28;20065;-40
2023/03/07 04:07:47;;;;;;;14.77;8.50;;;2.40;99.90;;;1.51;100.00;95930.03;4980415;28;20485;-41
2023/03/07 04:10:14;;;;;;;15.88;8.07;;;2.40;99.90;;;1.49;100.00;95932.66;4982801;28;20046;-40
2023/03/07 04:12:40;;;;;;;16.38;8.13;;;2.40;99.90;;;1.51;100.00;95927.44;4989466;28;20045;-40
2023/03/07 04:15:07;;;;;;;15.23;8.50;;;2.40;99.90;;;1.50;100.00;95918.75;4984088;28;20097;-40
2023/03/07 04:17:34;;;;;;;15.27;8.45;;;2.40;99.90;;;1.55;100.00;95923.84;4983898;28;20121;-40
2023/03/07 04:19:59;;;;;;;14.45;7.72;;;2.40;99.90;;;1.56;100.00;95922.09;4983826;28;20069;-41
2023/03/07 04:22:25;;;;;;;13.68;8.43;;;2.50;99.90;;;1.59;100.00;95924.63;4982802;28;20501;-40
2023/03/07 04:24:51;;;;;;;15.98;8.23;;;2.40;99.90;;;1.46;100.00;95892.91;4980679;28;20060;-40
2023/03/07 04:27:16;;;;;;;15.73;8.65;;;2.50;99.90;;;1.64;100.00;95926.22;4981287;28;20045;-40
2023/03/07 04:29:42;;;;;;;13.82;8.15;;;2.50;99.90;;;1.67;99.95;95922.66;4985189;28;20604;-40
2023/03/07 04:32:08;;;;;;;16.35;8.32;;;2.50;99.90;;;1.70;99.81;95923.44;4976362;28;20037;-40
2023/03/07 04:34:33;;;;;;;14.73;7.88;;;2.50;99.90;;;1.71;99.66;95922.56;4977826;28;20046;-39
2023/03/07 04:36:59;;;;;;;15.30;8.27;;;2.60;99.90;;;1.68;100.00;95916.59;4990384;28;20240;-40
2023/03/07 04:39:25;;;;;;;20.10;8.80;;;2.60;99.90;;;1.69;100.00;95911.38;4989029;28;20116;-40
2023/03/07 04:41:50;;;;;;;19.00;8.35;;;2.60;99.90;;;1.77;99.87;95913.75;4980323;28;20160;-40
2023/03/07 04:44:16;;;;;;;15.13;8.77;;;2.60;99.90;;;1.77;100.00;95910.31;4983868;28;20026;-41
2023/03/07 04:46:42;;;;;;;15.73;7.63;;;2.60;99.90;;;1.73;100.00;95900.91;4992051;28;20061;-41
2023/03/07 04:49:08;;;;;;;11.10;7.40;;;2.60;99.90;;;1.80;100.00;95913.69;4986998;28;20045;-40
2023/03/07 04:51:33;;;;;;;18.02;8.70;;;2.70;99.90;;;1.81;99.57;95909.31;4988779;28;20033;-40
2023/03/07 04:53:59;;;;;;;16.02;8.70;;;2.60;99.90;;;1.82;99.76;95911.88;4989747;28;20073;-40
2023/03/07 04:56:25;;;;;;;15.18;7.90;;;2.70;99.90;;;1.70;99.69;95879.25;4989267;28;20426;-40
2023/03/07 04:58:51;;;;;;;15.70;8.48;;;2.70;99.90;;;1.86;99.65;95908.31;4985841;28;20474;-42
2023/03/07 05:01:17;;;;;;;13.60;7.95;;;2.70;99.90;;;1.87;99.43;95904.81;4990316;28;20088;-40
2023/03/07 05:03:43;;;;;;;14.45;8.25;;;2.70;99.90;;;1.93;99.14;95902.97;4986796;28;20282;-41
2023/03/07 05:06:13;;;;;;;15.65;8.82;;;2.70;99.90;;;1.87;98.70;95904.81;4986463;28;20052;-40
2023/03/07 05:08:39;;;;;;;14.77;7.63;;;2.70;99.90;;;1.88;99.12;95898.75;4990985;28;20549;-40
2023/03/07 05:11:05;;;;;;;15.40;8.18;;;2.70;99.90;;;1.87;99.27;95903.97;4986746;28;20045;-40
2023/03/07 05:13:31;;;;;;;16.90;8.45;;;2.70;99.90;;;1.88;99.24;95901.34;4985514;28;20411;-41
2023/03/07 05:15:58;;;;;;;16.25;8.02;;;2.70;99.90;;;1.86;98.89;95892.72;4986571;28;20045;-40
2023/03/07 05:18:25;;;;;;;15.65;8.68;;;2.70;99.90;;;1.87;98.75;95889.22;4987329;28;20418;-40
2023/03/07 05:20:51;;;;;;;18.10;9.27;;;2.70;99.90;;;1.87;98.49;95894.44;4974434;28;20092;-41
2023/03/07 05:23:18;;;;;;;15.98;8.23;;;2.70;99.90;;;1.83;98.46;95881.53;4987809;28;20484;-40
2023/03/07 05:25:45;;;;;;;19.08;8.70;;;2.70;99.90;;;1.91;97.38;95887.41;4989153;28;20033;-40
2023/03/07 05:28:11;;;;;;;12.93;7.82;;;2.70;99.90;;;1.88;97.32;95877.94;4992081;28;20100;-40
2023/03/07 05:30:37;;;;;;;18.50;9.23;;;2.70;99.90;;;1.87;96.45;95878.00;4985294;28;20033;-41
2023/03/07 05:33:03;;;;;;;16.48;8.80;;;2.80;99.90;;;1.88;96.23;95884.88;4991208;28;20603;-41
2023/03/07 05:35:29;;;;;;;14.18;8.32;;;2.70;99.90;;;1.89;95.72;95894.41;4994694;28;20490;-40
2023/03/07 05:37:55;;;;;;;15.90;8.70;;;2.80;99.90;;;1.87;96.18;95894.44;4993016;28;20061;-40
2023/03/07 05:40:20;;;;;;;14.13;8.13;;;2.70;99.90;;;1.88;96.77;95890.06;4987487;28;20034;-40
2023/03/07 05:42:46;;;;;;;14.82;8.10;;;2.70;99.90;;;1.85;96.53;95895.38;4989371;28;20034;-40
2023/03/07 05:45:12;;;;;;;14.10;7.75;;;2.70;99.90;;;1.80;96.74;95881.66;4992235;28;20025;-40
2023/03/07 05:47:38;;;;;;;16.25;8.20;;;2.70;99.90;;;1.83;96.92;95889.34;4985204;28;20057;-41
2023/03/07 05:50:05;;;;;;;16.63;8.73;;;2.70;99.90;;;1.84;96.54;95883.25;4981907;28;20045;-40
2023/03/07 05:52:31;;;;;;;13.45;8.10;;;2.70;99.90;;;1.86;96.65;95876.28;4987611;28;20040;-40
2023/03/07 05:54:57;;;;;;;14.25;8.27;;;2.70;99.90;;;1.85;97.04;95878.03;4986131;28;20783;-40
2023/03/07 05:57:23;;;;;;;13.48;7.60;;;2.70;99.90;;;1.92;96.71;95878.72;4985468;28;20037;-40
2023/03/07 05:59:48;;;;;;;14.73;8.27;;;2.70;99.90;;;1.88;95.79;95872.75;4987576;28;20038;-40
2023/03/07 06:02:14;;;;;;;15.23;8.18;;;2.70;99.90;;;1.89;95.31;95887.44;4982065;28;20109;-40
2023/03/07 06:04:40;;;;;;;17.23;8.30;;;2.70;99.90;;;1.88;95.54;95871.88;4985065;28;20524;-40
2023/03/07 06:07:05;;;;;;;15.73;8.30;;;2.70;99.90;;;1.85;94.72;95864.19;4987892;28;20033;-40
2023/03/07 06:09:31;;;;;;;15.73;8.23;;;2.70;99.90;;;1.62;94.62;95831.00;4984773;28;20042;-40
2023/03/07 06:11:57;;;;;;;16.45;8.23;;;2.70;99.90;;;1.81;95.08;95868.63;4990127;28;20518;-40
2023/03/07 06:14:23;;;;;;;17.73;9.40;;;2.70;99.90;;;1.76;94.17;95859.22;4990922;28;20025;-41
2023/03/07 06:16:49;;;;;;;14.48;8.63;;;2.70;99.90;;;1.83;94.10;95859.03;4987072;28;20026;-40
2023/03/07 06:19:14;;;;;;;14.10;8.10;;;2.70;99.90;;;1.87;93.53;95857.19;4988626;28;20096;-40
2023/03/07 06:21:41;;;;;;;16.35;8.00;;;2.70;99.90;;;1.71;93.05;95830.75;4988517;28;20025;-40
2023/03/07 06:24:08;;;;;;;14.85;8.07;;;2.70;99.90;;;1.93;92.72;95862.22;4990941;28;20108;-40
2023/03/07 06:26:33;;;;;;;14.52;7.80;;;2.80;99.90;;;1.97;92.45;95868.19;4983062;28;20057;-41
2023/03/07 06:28:59;;;;;;;16.63;8.15;;;2.80;99.90;;;1.99;91.85;95864.66;4985638;28;20030;-41
2023/03/07 06:31:25;;;;;;;13.27;7.70;;;2.80;99.90;;;1.99;91.92;95855.97;4985166;28;20030;-40
2023/03/07 06:33:51;;;;;;;13.45;7.20;;;2.80;99.90;;;2.05;92.26;95863.63;4993333;28;20066;-40
2023/03/07 06:36:18;;;;;;;15.02;7.97;;;2.90;99.90;;;2.07;91.71;95864.44;4992587;28;20506;-41
2023/03/07 06:38:45;;;;;;;14.07;7.90;;;2.90;99.90;;;2.10;89.83;95869.56;4983005;28;20036;-40
2023/03/07 06:41:10;;;;;;;15.35;7.80;;;2.90;99.90;;;2.14;90.59;95865.13;4976788;28;20052;-40
2023/03/07 06:43:36;;;;;;;14.50;7.97;;;3.00;99.90;;;2.18;90.55;95858.94;4980295;28;20741;-40
2023/03/07 06:46:02;;;;;;;13.90;7.72;;;3.00;99.90;;;2.21;89.59;95856.25;4985893;28;20021;-39
2023/03/07 06:48:28;;;;;;;13.27;7.22;;;3.00;99.90;;;2.25;89.51;95868.25;4980817;28;20038;-40
2023/03/07 06:50:54;;;;;;;16.08;7.97;;;3.10;99.90;;;2.30;88.49;95858.59;4984804;28;20079;-39
2023/03/07 06:53:20;;;;;;;13.75;7.47;;;3.20;99.90;;;2.39;87.92;95858.31;4991794;28;20170;-40
2023/03/07 06:55:50;;;;;;;12.05;7.45;;;3.20;99.90;;;2.53;87.08;95867.44;4981205;28;21078;-40
2023/03/07 06:58:17;;;;;;;14.43;7.78;;;3.30;99.90;;;2.59;86.35;95868.13;4987682;28;20036;-39
2023/03/07 07:00:43;;;;;;;12.55;7.45;;;3.40;99.90;;;2.66;84.57;95864.44;4984230;28;20887;-40
2023/03/07 07:03:17;;;;;;;15.40;8.18;;;3.50;99.90;;;2.84;83.43;95872.59;4990229;28;20357;-40
2023/03/07 07:05:43;;;;;;;14.90;7.68;;;3.60;99.90;;;2.89;82.07;95872.44;4984129;28;20092;-40
2023/03/07 07:08:08;;;;;;;13.02;7.55;;;3.70;99.90;;;2.94;82.36;95870.53;4985505;28;20038;-40
2023/03/07 07:10:34;;;;;;;12.88;7.38;;;3.80;99.90;;;3.03;82.14;95862.44;4987182;28;20664;-40
2023/03/07 07:13:00;;;;;;;13.00;6.95;;;3.80;99.90;;;3.07;81.78;95869.28;4987587;28;20045;-40
2023/03/07 07:15:25;;;;;;;15.45;6.90;;;3.90;99.90;;;3.20;81.93;95873.16;4983730;28;20038;-40
2023/03/07 07:17:51;;;;;;;12.27;7.22;;;4.00;99.90;;;3.29;82.76;95872.03;4988411;28;20030;-40
2023/03/07 07:20:18;;;;;;;12.32;7.38;;;4.10;99.90;;;3.22;79.68;95850.53;4986858;28;20727;-40
2023/03/07 07:22:43;;;;;;;13.73;7.28;;;4.20;99.90;;;3.47;79.12;95859.31;4982403;28;20087;-40
2023/03/07 07:25:10;;;;;;;19.08;7.80;;;4.30;99.90;;;3.56;78.13;95864.19;4984109;28;20030;-39
2023/03/07 07:27:36;;;;;;;13.98;7.40;;;4.40;99.90;;;3.63;77.76;95866.53;4987312;28;20105;-40
2023/03/07 07:30:04;;;;;;;12.82;7.28;;;4.40;99.90;;;3.72;77.20;95867.13;4981405;28;20213;-40
2023/03/07 07:32:29;;;;;;;11.80;7.35;;;4.50;99.90;;;3.77;76.01;95870.44;4983558;28;20033;-40
2023/03/07 07:34:55;;;;;;;13.15;7.70;;;4.60;99.90;;;3.75;76.74;95873.09;4986744;28;20048;-38
2023/03/07 07:37:21;;;;;;;12.73;7.30;;;4.60;99.90;;;3.58;76.00;95813.72;5017792;22;20774;-44
2023/03/07 07:39:49;;;;;;;12.75;7.43;;;4.60;99.90;;;3.68;76.07;95839.44;5009713;28;20072;-44
2023/03/07 07:42:14;;;;;;;12.07;7.43;;;4.60;99.90;;;3.80;75.33;95868.59;5001569;28;20030;-43
2023/03/07 07:44:40;;;;;;;13.02;8.10;;;4.60;99.90;;;3.77;74.91;95863.47;5006969;28;20118;-43
2023/03/07 07:47:06;;;;;;;12.10;6.97;;;4.60;99.90;;;3.77;75.27;95875.66;5007050;28;20025;-43
2023/03/07 07:49:31;;;;;;;12.07;7.20;;;4.60;99.90;;;3.60;74.83;95840.56;5006671;28;20108;-44
2023/03/07 07:51:57;;;;;;;11.63;7.10;;;4.60;99.90;;;3.85;74.89;95870.16;5006348;28;20041;-43
2023/03/07 07:54:23;;;;;;;11.48;7.18;;;4.60;99.90;;;3.89;75.52;95863.94;5009236;28;20087;-44
2023/03/07 07:56:48;;;;;;;13.90;7.55;;;4.70;99.90;;;3.97;74.52;95867.13;5007058;28;20497;-43
2023/03/07 07:59:14;;;;;;;12.75;7.65;;;4.70;99.90;;;4.04;72.30;95871.22;5010778;28;20029;-41
2023/03/07 08:01:40;;;;;;;9.73;6.82;;;4.80;99.90;;;4.12;72.59;95863.97;5001205;28;20808;-46
2023/03/07 08:04:06;;;;;;;11.73;7.43;;;4.90;99.90;;;4.12;72.12;95861.34;5004312;28;20109;-44
2023/03/07 08:06:32;;;;;;;12.38;7.18;;;4.90;99.90;;;4.15;71.57;95844.75;5011860;28;20088;-45
2023/03/07 08:08:58;;;;;;;12.73;6.82;;;5.00;99.90;;;4.21;71.16;95863.63;5009439;28;20034;-43
2023/03/07 08:11:24;;;;;;;13.25;7.20;;;5.00;99.90;;;4.26;73.10;95862.63;5009964;28;20111;-44
2023/03/07 08:13:50;;;;;;;13.93;7.35;;;5.10;99.90;;;4.23;71.29;95857.50;5015198;28;20032;-43
2023/03/07 08:16:19;;;;;;;12.15;7.05;;;5.10;99.90;;;4.26;70.45;95862.63;5001438;28;20025;-43
2023/03/07 08:18:52;;;;;;;13.45;7.20;;;5.10;99.90;;;4.34;71.07;95855.34;5004036;28;20559;-43
2023/03/07 08:21:18;;;;;;;13.23;7.47;;;5.10;99.90;;;4.31;70.22;95855.47;5012901;28;20056;-44
2023/03/07 08:23:44;;;;;;;13.40;7.22;;;5.20;99.90;;;4.40;70.52;95850.75;5012155;28;20040;-44
2023/03/07 08:26:12;;;;;;;11.40;7.03;;;5.30;99.90;;;4.59;69.64;95845.72;5014515;28;20045;-47
2023/03/07 08:28:38;;;;;;;12.23;7.28;;;5.40;99.90;;;4.74;68.17;95846.88;5010425;28;20041;-45
2023/03/07 08:31:16;;;;;;;12.35;7.10;;;5.50;99.90;;;4.82;68.14;95840.50;5012672;28;20492;-45
2023/03/07 08:33:42;;;;;;;14.38;8.05;;;5.60;99.90;;;4.87;73.34;95842.00;5014075;28;20033;-44
2023/03/07 08:36:08;;;;;;;11.93;7.30;;;5.70;99.90;;;4.95;66.50;95826.91;5008856;28;20111;-46
2023/03/07 08:38:33;;;;;;;15.75;7.40;;;5.90;99.90;;;5.15;66.46;95847.00;5013602;28;20069;-45
2023/03/07 08:41:05;;;;;;;13.13;7.50;;;5.90;99.90;;;5.20;65.86;95838.97;5007963;28;20129;-45
2023/03/07 08:43:33;;;;;;;13.20;6.78;;;6.00;99.90;;;5.36;64.86;95841.81;5012976;28;20091;-45
2023/03/07 08:45:59;;;;;;;12.60;7.20;;;6.10;99.90;;;5.39;64.24;95841.69;5010523;28;20033;-48
2023/03/07 08:48:26;;;;;;;12.77;8.00;;;6.20;99.90;;;5.45;62.52;95846.66;5014274;28;20060;-46
2023/03/07 08:50:52;;;;;;;12.73;6.93;;;6.20;99.90;;;5.37;62.57;95840.06;5006491;28;20444;-46
2023/03/07 08:53:18;;;;;;;12.05;7.57;;;6.20;99.90;;;5.36;61.92;95831.34;5012826;28;20037;-44
2023/03/07 08:55:44;;;;;;;13.00;7.15;;;6.20;99.90;;;5.24;62.78;95839.69;5012812;28;20040;-47
2023/03/07 08:58:10;;;;;;;12.82;7.07;;;6.10;99.90;;;5.16;62.14;95835.63;5011300;28;20025;-48
2023/03/07 09:00:37;;;;;;;12.93;6.70;;;6.00;99.90;;;5.19;62.66;95831.19;5010705;28;20026;-47
2023/03/07 09:03:04;;;;;;;12.73;6.90;;;6.00;99.90;;;5.10;62.92;95829.81;5011317;28;20513;-45
2023/03/07 09:05:31;;;;;;;10.98;6.70;;;5.90;99.90;;;5.05;61.82;95826.53;5011266;28;20491;-46
2023/03/07 09:07:57;;;;;;;10.82;6.53;;;5.90;99.90;;;4.87;62.70;95828.13;5013293;28;20034;-47
2023/03/07 09:10:23;;;;;;;13.02;6.80;;;5.80;99.90;;;4.88;62.74;95822.84;5014856;28;20111;-47
2023/03/07 09:12:53;;;;;;;11.27;6.47;;;5.80;99.90;;;5.01;63.57;95830.16;5012704;28;20048;-45
2023/03/07 09:15:20;;;;;;;11.77;6.50;;;5.80;99.90;;;4.93;63.22;95825.25;5010665;28;20038;-46
2023/03/07 09:17:46;;;;;;;11.00;6.18;;;5.90;99.90;;;4.97;60.48;95832.03;5013944;28;20191;-47
2023/03/07 09:20:15;;;;;;;10.10;6.22;;;5.90;99.90;;;5.00;59.57;95831.94;5014006;28;20052;-45
2023/03/07 09:22:41;;;;;;;9.60;5.53;;;6.00;99.90;;;5.14;59.51;95820.94;5011648;28;20718;-48
2023/03/07 09:25:07;;;;;;;9.27;5.20;;;6.00;99.90;;;5.12;58.57;95828.81;5005796;28;20029;-48
2023/03/07 09:27:32;;;;;;;10.70;5.93;;;6.10;99.90;;;5.22;57.18;95813.59;5007326;28;20033;-46
2023/03/07 09:29:59;;;;;;;9.23;4.90;;;6.10;99.90;;;5.47;57.37;95823.94;5010799;28;20036;-45
2023/03/07 09:32:25;;;;;;;11.63;5.18;;;6.30;99.90;;;5.63;57.01;95828.50;5010857;28;20111;-44
2023/03/07 09:34:52;;;;;;;8.57;5.75;;;6.50;99.90;;;5.73;56.46;95829.81;5011292;28;20132;-46
2023/03/07 09:37:17;;;;;;;11.82;5.43;;;6.60;99.90;;;5.84;56.43;95826.72;5014939;28;20053;-45
2023/03/07 09:39:43;;;;;;;12.52;5.72;;;6.70;99.90;;;5.59;55.91;95825.16;5011663;28;20026;-45
2023/03/07 09:42:35;;;;;;;10.35;5.72;;;6.60;99.90;;;5.44;56.45;95834.50;5011628;28;20083;-44
2023/03/07 09:45:16;;;;;;;10.40;5.57;;;6.50;99.90;;;5.26;55.60;95824.81;5009093;28;20022;-45
2023/03/07 09:48:17;;;;;;;8.57;5.00;;;6.20;99.90;;;5.31;56.31;95828.94;5008951;28;20441;-46
2023/03/07 09:50:54;;;;;;;8.80;4.75;;;6.10;99.90;;;5.31;56.02;95823.72;5009949;28;20493;-47
2023/03/07 09:53:40;;;;;;;7.78;4.85;;;6.20;99.90;;;5.33;56.24;95816.66;5014417;28;20048;-44
2023/03/07 09:56:13;;;;;;;9.60;5.22;;;6.20;99.90;;;5.41;55.87;95824.16;5013366;28;20036;-45
2023/03/07 09:58:44;;;;;;;9.07;5.28;;;6.20;99.90;;;5.39;55.76;95818.16;5000321;28;20032;-45
2023/03/07 10:01:14;;;;;;;7.47;5.00;;;6.20;99.90;;;5.33;54.34;95823.66;5003498;28;20602;-45
2023/03/07 10:04:03;;;;;;;10.13;5.03;;;6.20;99.90;;;5.29;54.49;95814.22;5005494;28;20029;-45
2023/03/07 10:06:40;;;;;;;8.68;4.60;;;6.20;99.90;;;5.33;54.60;95814.03;5009050;28;20030;-46
2023/03/07 10:09:20;;;;;;;9.75;5.00;;;6.10;99.90;;;5.18;54.93;95814.66;5014087;28;20029;-44
2023/03/07 10:11:57;;;;;;;11.23;5.00;;;6.10;99.90;;;5.01;55.50;95815.34;5008598;28;20671;-44
2023/03/07 10:14:57;;;;;;;9.27;4.93;;;5.90;99.90;;;4.98;55.61;95807.63;5013756;28;20033;-44
2023/03/07 10:18:04;;;;;;;8.10;5.25;;;5.80;99.90;;;4.91;56.25;95795.72;5019664;28;20036;-44
2023/03/07 10:21:21;;;;;;;15.93;5.40;;;5.80;99.90;;;4.86;56.36;95805.50;5016024;28;20518;-45
2023/03/07 10:24:14;;;;;;;8.13;4.80;;;5.70;99.90;;;4.82;56.19;95803.94;5022876;28;20038;-44
2023/03/07 10:27:03;;;;;;;6.63;4.32;;;5.60;99.90;;;4.78;55.83;95803.22;5004938;28;20524;-48
2023/03/07 10:29:48;;;;;;;10.48;4.68;;;5.60;99.90;;;4.76;56.03;95805.03;5013863;28;20075;-44